sensor_id;sensor_type;location;lat;lon;timestamp;P1;durP1;ratioP1;P2;durP2;ratioP2
52962;SDS011;38827;53.024;6.596;2023-04-03T00:00:05;1.97;;;1.13;;
52962;SDS011;38827;53.024;6.596;2023-04-03T00:04:57;3.13;;;1.10;;
52962;SDS011;38827;53.024;6.596;2023-04-03T00:07:23;2.08;;;1.17;;
52962;SDS011;38827;53.024;6.596;2023-04-03T00:09:54;2.10;;;1.20;;
52962;SDS011;38827;53.024;6.596;2023-04-03T00:12:20;2.08;;;1.20;;
52962;SDS011;38827;53.024;6.596;2023-04-03T00:14:46;2.80;;;1.17;;
52962;SDS011;38827;53.024;6.596;2023-04-03T00:17:11;4.75;;;1.30;;
52962;SDS011;38827;53.024;6.596;2023-04-03T00:19:37;1.67;;;1.20;;
52962;SDS011;38827;53.024;6.596;2023-04-03T00:22:02;3.97;;;1.40;;
52962;SDS011;38827;53.024;6.596;2023-04-03T00:24:28;2.83;;;1.27;;
52962;SDS011;38827;53.024;6.596;2023-04-03T00:26:54;2.35;;;1.13;;
52962;SDS011;38827;53.024;6.596;2023-04-03T00:29:40;4.90;;;1.20;;
52962;SDS011;38827;53.024;6.596;2023-04-03T00:32:10;2.10;;;1.20;;
52962;SDS011;38827;53.024;6.596;2023-04-03T00:34:45;4.38;;;1.20;;
52962;SDS011;38827;53.024;6.596;2023-04-03T00:37:24;2.70;;;1.05;;
52962;SDS011;38827;53.024;6.596;2023-04-03T00:40:07;1.83;;;0.90;;
52962;SDS011;38827;53.024;6.596;2023-04-03T00:42:43;2.70;;;1.33;;
52962;SDS011;38827;53.024;6.596;2023-04-03T00:48:05;4.97;;;1.45;;
52962;SDS011;38827;53.024;6.596;2023-04-03T00:50:39;4.28;;;1.80;;
52962;SDS011;38827;53.024;6.596;2023-04-03T00:53:19;2.85;;;1.20;;
52962;SDS011;38827;53.024;6.596;2023-04-03T00:55:50;2.20;;;1.27;;
52962;SDS011;38827;53.024;6.596;2023-04-03T00:58:17;3.35;;;1.50;;
52962;SDS011;38827;53.024;6.596;2023-04-03T01:00:46;3.92;;;1.45;;
52962;SDS011;38827;53.024;6.596;2023-04-03T01:03:21;3.28;;;1.33;;
52962;SDS011;38827;53.024;6.596;2023-04-03T01:05:46;4.07;;;1.60;;
52962;SDS011;38827;53.024;6.596;2023-04-03T01:08:12;2.45;;;1.40;;
52962;SDS011;38827;53.024;6.596;2023-04-03T01:10:38;3.15;;;1.33;;
52962;SDS011;38827;53.024;6.596;2023-04-03T01:13:27;2.35;;;1.38;;
52962;SDS011;38827;53.024;6.596;2023-04-03T01:15:56;3.15;;;1.30;;
52962;SDS011;38827;53.024;6.596;2023-04-03T01:18:25;4.05;;;1.30;;
52962;SDS011;38827;53.024;6.596;2023-04-03T01:23:25;5.18;;;1.70;;
52962;SDS011;38827;53.024;6.596;2023-04-03T01:26:06;3.58;;;1.60;;
52962;SDS011;38827;53.024;6.596;2023-04-03T01:28:33;4.68;;;1.75;;
52962;SDS011;38827;53.024;6.596;2023-04-03T01:31:24;3.17;;;1.75;;
52962;SDS011;38827;53.024;6.596;2023-04-03T01:34:02;4.95;;;1.60;;
52962;SDS011;38827;53.024;6.596;2023-04-03T01:36:34;3.10;;;1.60;;
52962;SDS011;38827;53.024;6.596;2023-04-03T01:39:25;6.45;;;1.70;;
52962;SDS011;38827;53.024;6.596;2023-04-03T01:41:58;3.00;;;1.73;;
52962;SDS011;38827;53.024;6.596;2023-04-03T01:44:40;4.03;;;1.80;;
52962;SDS011;38827;53.024;6.596;2023-04-03T01:47:16;3.92;;;1.63;;
52962;SDS011;38827;53.024;6.596;2023-04-03T01:49:53;6.25;;;1.98;;
52962;SDS011;38827;53.024;6.596;2023-04-03T01:52:21;3.22;;;1.70;;
52962;SDS011;38827;53.024;6.596;2023-04-03T01:54:55;2.78;;;1.45;;
52962;SDS011;38827;53.024;6.596;2023-04-03T01:57:26;4.25;;;1.70;;
52962;SDS011;38827;53.024;6.596;2023-04-03T01:59:52;3.97;;;1.70;;
52962;SDS011;38827;53.024;6.596;2023-04-03T02:02:17;4.00;;;1.70;;
52962;SDS011;38827;53.024;6.596;2023-04-03T02:04:45;5.00;;;1.77;;
52962;SDS011;38827;53.024;6.596;2023-04-03T02:07:15;4.55;;;1.80;;
52962;SDS011;38827;53.024;6.596;2023-04-03T02:09:41;4.75;;;1.63;;
52962;SDS011;38827;53.024;6.596;2023-04-03T02:12:06;4.15;;;1.92;;
52962;SDS011;38827;53.024;6.596;2023-04-03T02:14:32;3.22;;;1.60;;
52962;SDS011;38827;53.024;6.596;2023-04-03T02:16:58;5.20;;;1.75;;
52962;SDS011;38827;53.024;6.596;2023-04-03T02:19:25;5.75;;;2.00;;
52962;SDS011;38827;53.024;6.596;2023-04-03T02:21:51;3.88;;;1.75;;
52962;SDS011;38827;53.024;6.596;2023-04-03T02:24:20;4.55;;;1.65;;
52962;SDS011;38827;53.024;6.596;2023-04-03T02:26:45;6.20;;;2.35;;
52962;SDS011;38827;53.024;6.596;2023-04-03T02:29:12;5.65;;;1.77;;
52962;SDS011;38827;53.024;6.596;2023-04-03T02:31:38;5.35;;;1.77;;
52962;SDS011;38827;53.024;6.596;2023-04-03T02:34:09;4.80;;;2.20;;
52962;SDS011;38827;53.024;6.596;2023-04-03T02:36:42;4.53;;;1.90;;
52962;SDS011;38827;53.024;6.596;2023-04-03T02:39:09;7.97;;;2.30;;
52962;SDS011;38827;53.024;6.596;2023-04-03T02:41:35;5.07;;;2.17;;
52962;SDS011;38827;53.024;6.596;2023-04-03T02:44:01;6.70;;;2.05;;
52962;SDS011;38827;53.024;6.596;2023-04-03T02:46:27;5.32;;;1.98;;
52962;SDS011;38827;53.024;6.596;2023-04-03T02:48:53;5.45;;;2.10;;
52962;SDS011;38827;53.024;6.596;2023-04-03T02:51:19;6.10;;;2.00;;
52962;SDS011;38827;53.024;6.596;2023-04-03T02:53:45;5.78;;;1.95;;
52962;SDS011;38827;53.024;6.596;2023-04-03T02:56:10;4.03;;;1.80;;
52962;SDS011;38827;53.024;6.596;2023-04-03T02:58:36;5.03;;;1.80;;
52962;SDS011;38827;53.024;6.596;2023-04-03T03:01:02;4.18;;;1.80;;
52962;SDS011;38827;53.024;6.596;2023-04-03T03:03:27;6.47;;;2.03;;
52962;SDS011;38827;53.024;6.596;2023-04-03T03:08:32;5.40;;;2.17;;
52962;SDS011;38827;53.024;6.596;2023-04-03T03:10:58;9.48;;;2.08;;
52962;SDS011;38827;53.024;6.596;2023-04-03T03:13:24;4.95;;;2.00;;
52962;SDS011;38827;53.024;6.596;2023-04-03T03:15:50;3.65;;;2.00;;
52962;SDS011;38827;53.024;6.596;2023-04-03T03:18:16;6.95;;;2.38;;
52962;SDS011;38827;53.024;6.596;2023-04-03T03:20:42;5.32;;;2.35;;
52962;SDS011;38827;53.024;6.596;2023-04-03T03:23:08;5.68;;;1.90;;
52962;SDS011;38827;53.024;6.596;2023-04-03T03:25:37;7.53;;;2.22;;
52962;SDS011;38827;53.024;6.596;2023-04-03T03:28:06;4.90;;;2.25;;
52962;SDS011;38827;53.024;6.596;2023-04-03T03:30:32;5.88;;;1.85;;
52962;SDS011;38827;53.024;6.596;2023-04-03T03:32:58;5.22;;;2.00;;
52962;SDS011;38827;53.024;6.596;2023-04-03T03:35:23;7.68;;;2.42;;
52962;SDS011;38827;53.024;6.596;2023-04-03T03:37:49;5.90;;;1.95;;
52962;SDS011;38827;53.024;6.596;2023-04-03T03:40:15;5.88;;;1.83;;
52962;SDS011;38827;53.024;6.596;2023-04-03T03:42:41;3.35;;;2.00;;
52962;SDS011;38827;53.024;6.596;2023-04-03T03:45:06;7.05;;;2.17;;
52962;SDS011;38827;53.024;6.596;2023-04-03T03:47:33;5.88;;;2.28;;
52962;SDS011;38827;53.024;6.596;2023-04-03T03:49:58;7.45;;;2.03;;
52962;SDS011;38827;53.024;6.596;2023-04-03T03:52:24;8.13;;;2.40;;
52962;SDS011;38827;53.024;6.596;2023-04-03T03:54:50;6.10;;;1.95;;
52962;SDS011;38827;53.024;6.596;2023-04-03T03:57:16;7.45;;;2.42;;
52962;SDS011;38827;53.024;6.596;2023-04-03T03:59:41;6.85;;;2.38;;
52962;SDS011;38827;53.024;6.596;2023-04-03T04:02:08;5.38;;;2.35;;
52962;SDS011;38827;53.024;6.596;2023-04-03T04:04:35;6.05;;;2.63;;
52962;SDS011;38827;53.024;6.596;2023-04-03T04:07:01;6.28;;;2.40;;
52962;SDS011;38827;53.024;6.596;2023-04-03T04:09:27;5.15;;;2.60;;
52962;SDS011;38827;53.024;6.596;2023-04-03T04:11:53;8.80;;;3.17;;
52962;SDS011;38827;53.024;6.596;2023-04-03T04:14:18;7.15;;;2.33;;
52962;SDS011;38827;53.024;6.596;2023-04-03T04:16:48;7.22;;;2.83;;
52962;SDS011;38827;53.024;6.596;2023-04-03T04:19:13;8.32;;;2.90;;
52962;SDS011;38827;53.024;6.596;2023-04-03T04:21:39;10.35;;;3.00;;
52962;SDS011;38827;53.024;6.596;2023-04-03T04:24:09;10.65;;;3.10;;
52962;SDS011;38827;53.024;6.596;2023-04-03T04:26:38;6.28;;;2.50;;
52962;SDS011;38827;53.024;6.596;2023-04-03T04:29:03;4.53;;;2.00;;
52962;SDS011;38827;53.024;6.596;2023-04-03T04:31:29;5.53;;;2.50;;
52962;SDS011;38827;53.024;6.596;2023-04-03T04:33:57;6.90;;;2.80;;
52962;SDS011;38827;53.024;6.596;2023-04-03T04:36:23;6.78;;;3.40;;
52962;SDS011;38827;53.024;6.596;2023-04-03T04:38:48;9.85;;;3.10;;
52962;SDS011;38827;53.024;6.596;2023-04-03T04:41:17;6.05;;;2.63;;
52962;SDS011;38827;53.024;6.596;2023-04-03T04:43:47;6.75;;;2.90;;
52962;SDS011;38827;53.024;6.596;2023-04-03T04:46:13;11.65;;;3.65;;
52962;SDS011;38827;53.024;6.596;2023-04-03T04:48:39;5.72;;;2.95;;
52962;SDS011;38827;53.024;6.596;2023-04-03T04:51:05;8.15;;;2.90;;
52962;SDS011;38827;53.024;6.596;2023-04-03T04:53:31;9.07;;;3.85;;
52962;SDS011;38827;53.024;6.596;2023-04-03T04:55:58;6.03;;;2.95;;
52962;SDS011;38827;53.024;6.596;2023-04-03T04:58:23;7.45;;;2.80;;
52962;SDS011;38827;53.024;6.596;2023-04-03T05:00:57;9.98;;;3.30;;
52962;SDS011;38827;53.024;6.596;2023-04-03T05:03:26;6.90;;;3.10;;
52962;SDS011;38827;53.024;6.596;2023-04-03T05:05:52;8.38;;;3.03;;
52962;SDS011;38827;53.024;6.596;2023-04-03T05:08:18;6.97;;;2.67;;
52962;SDS011;38827;53.024;6.596;2023-04-03T05:10:44;5.78;;;2.85;;
52962;SDS011;38827;53.024;6.596;2023-04-03T05:13:10;6.38;;;2.85;;
52962;SDS011;38827;53.024;6.596;2023-04-03T05:15:36;9.75;;;3.63;;
52962;SDS011;38827;53.024;6.596;2023-04-03T05:18:02;6.85;;;3.10;;
52962;SDS011;38827;53.024;6.596;2023-04-03T05:20:28;8.70;;;3.13;;
52962;SDS011;38827;53.024;6.596;2023-04-03T05:22:54;7.20;;;2.80;;
52962;SDS011;38827;53.024;6.596;2023-04-03T05:25:20;8.35;;;3.10;;
52962;SDS011;38827;53.024;6.596;2023-04-03T05:27:45;8.75;;;3.38;;
52962;SDS011;38827;53.024;6.596;2023-04-03T05:30:11;9.55;;;3.20;;
52962;SDS011;38827;53.024;6.596;2023-04-03T05:32:37;7.87;;;3.33;;
52962;SDS011;38827;53.024;6.596;2023-04-03T05:35:05;11.65;;;3.40;;
52962;SDS011;38827;53.024;6.596;2023-04-03T05:37:39;8.65;;;3.28;;
52962;SDS011;38827;53.024;6.596;2023-04-03T05:40:06;9.25;;;3.70;;
52962;SDS011;38827;53.024;6.596;2023-04-03T05:42:32;12.25;;;3.58;;
52962;SDS011;38827;53.024;6.596;2023-04-03T05:44:58;8.30;;;3.50;;
52962;SDS011;38827;53.024;6.596;2023-04-03T05:47:24;8.27;;;3.40;;
52962;SDS011;38827;53.024;6.596;2023-04-03T05:49:50;10.27;;;3.50;;
52962;SDS011;38827;53.024;6.596;2023-04-03T05:52:28;8.93;;;3.42;;
52962;SDS011;38827;53.024;6.596;2023-04-03T05:54:57;8.63;;;3.35;;
52962;SDS011;38827;53.024;6.596;2023-04-03T05:57:22;8.93;;;4.03;;
52962;SDS011;38827;53.024;6.596;2023-04-03T05:59:48;8.90;;;4.10;;
52962;SDS011;38827;53.024;6.596;2023-04-03T06:02:15;6.47;;;3.70;;
52962;SDS011;38827;53.024;6.596;2023-04-03T06:04:49;11.10;;;3.72;;
52962;SDS011;38827;53.024;6.596;2023-04-03T06:07:19;13.80;;;3.63;;
52962;SDS011;38827;53.024;6.596;2023-04-03T06:09:48;9.85;;;4.28;;
52962;SDS011;38827;53.024;6.596;2023-04-03T06:14:40;8.00;;;4.13;;
52962;SDS011;38827;53.024;6.596;2023-04-03T06:17:06;10.30;;;3.58;;
52962;SDS011;38827;53.024;6.596;2023-04-03T06:19:33;10.60;;;3.50;;
52962;SDS011;38827;53.024;6.596;2023-04-03T06:21:59;9.25;;;3.92;;
52962;SDS011;38827;53.024;6.596;2023-04-03T06:24:27;9.93;;;3.50;;
52962;SDS011;38827;53.024;6.596;2023-04-03T06:26:54;9.47;;;3.60;;
52962;SDS011;38827;53.024;6.596;2023-04-03T06:29:19;9.23;;;3.80;;
52962;SDS011;38827;53.024;6.596;2023-04-03T06:31:46;7.70;;;3.37;;
52962;SDS011;38827;53.024;6.596;2023-04-03T06:34:12;9.60;;;3.70;;
52962;SDS011;38827;53.024;6.596;2023-04-03T06:36:38;8.47;;;3.43;;
52962;SDS011;38827;53.024;6.596;2023-04-03T06:41:30;7.60;;;3.20;;
52962;SDS011;38827;53.024;6.596;2023-04-03T06:43:56;8.20;;;3.50;;
52962;SDS011;38827;53.024;6.596;2023-04-03T06:46:23;12.82;;;3.92;;
52962;SDS011;38827;53.024;6.596;2023-04-03T06:48:50;7.90;;;3.08;;
52962;SDS011;38827;53.024;6.596;2023-04-03T06:51:26;8.82;;;3.17;;
52962;SDS011;38827;53.024;6.596;2023-04-03T06:54:10;8.73;;;3.08;;
52962;SDS011;38827;53.024;6.596;2023-04-03T06:57:18;6.97;;;2.63;;
52962;SDS011;38827;53.024;6.596;2023-04-03T07:03:03;6.78;;;2.97;;
52962;SDS011;38827;53.024;6.596;2023-04-03T07:05:30;6.30;;;2.70;;
52962;SDS011;38827;53.024;6.596;2023-04-03T07:07:55;7.40;;;2.40;;
52962;SDS011;38827;53.024;6.596;2023-04-03T07:10:30;8.50;;;2.50;;
52962;SDS011;38827;53.024;6.596;2023-04-03T07:12:56;8.05;;;3.25;;
52962;SDS011;38827;53.024;6.596;2023-04-03T07:15:34;4.75;;;2.25;;
52962;SDS011;38827;53.024;6.596;2023-04-03T07:18:02;6.78;;;2.65;;
52962;SDS011;38827;53.024;6.596;2023-04-03T07:20:28;5.68;;;2.22;;
52962;SDS011;38827;53.024;6.596;2023-04-03T07:22:54;6.63;;;2.42;;
52962;SDS011;38827;53.024;6.596;2023-04-03T07:25:22;7.18;;;2.42;;
52962;SDS011;38827;53.024;6.596;2023-04-03T07:27:57;5.28;;;2.45;;
52962;SDS011;38827;53.024;6.596;2023-04-03T07:30:25;5.15;;;2.58;;
52962;SDS011;38827;53.024;6.596;2023-04-03T07:36:49;6.78;;;2.22;;
52962;SDS011;38827;53.024;6.596;2023-04-03T07:39:22;5.55;;;2.22;;
52962;SDS011;38827;53.024;6.596;2023-04-03T07:41:55;9.18;;;2.22;;
52962;SDS011;38827;53.024;6.596;2023-04-03T07:44:31;5.72;;;2.30;;
52962;SDS011;38827;53.024;6.596;2023-04-03T07:47:09;3.95;;;1.60;;
52962;SDS011;38827;53.024;6.596;2023-04-03T07:49:58;4.80;;;2.20;;
52962;SDS011;38827;53.024;6.596;2023-04-03T07:52:32;4.70;;;1.98;;
52962;SDS011;38827;53.024;6.596;2023-04-03T07:55:05;6.57;;;2.25;;
52962;SDS011;38827;53.024;6.596;2023-04-03T07:57:57;6.63;;;2.28;;
52962;SDS011;38827;53.024;6.596;2023-04-03T08:00:44;4.15;;;1.92;;
52962;SDS011;38827;53.024;6.596;2023-04-03T08:03:33;4.57;;;1.92;;
52962;SDS011;38827;53.024;6.596;2023-04-03T08:06:26;7.53;;;2.28;;
52962;SDS011;38827;53.024;6.596;2023-04-03T08:08:58;4.88;;;1.65;;
52962;SDS011;38827;53.024;6.596;2023-04-03T08:11:34;5.32;;;1.90;;
52962;SDS011;38827;53.024;6.596;2023-04-03T08:14:14;3.67;;;1.77;;
52962;SDS011;38827;53.024;6.596;2023-04-03T08:16:53;5.82;;;1.77;;
52962;SDS011;38827;53.024;6.596;2023-04-03T08:19:19;3.80;;;1.50;;
52962;SDS011;38827;53.024;6.596;2023-04-03T08:22:02;4.13;;;1.40;;
52962;SDS011;38827;53.024;6.596;2023-04-03T08:24:33;3.53;;;1.60;;
52962;SDS011;38827;53.024;6.596;2023-04-03T08:27:10;3.72;;;1.52;;
52962;SDS011;38827;53.024;6.596;2023-04-03T08:29:36;4.55;;;1.25;;
52962;SDS011;38827;53.024;6.596;2023-04-03T08:32:03;3.40;;;1.30;;
52962;SDS011;38827;53.024;6.596;2023-04-03T08:34:31;3.33;;;1.52;;
52962;SDS011;38827;53.024;6.596;2023-04-03T08:37:00;3.85;;;1.48;;
52962;SDS011;38827;53.024;6.596;2023-04-03T08:39:26;5.18;;;1.50;;
52962;SDS011;38827;53.024;6.596;2023-04-03T08:41:52;3.40;;;1.25;;
52962;SDS011;38827;53.024;6.596;2023-04-03T08:49:52;3.30;;;1.40;;
52962;SDS011;38827;53.024;6.596;2023-04-03T08:55:28;3.03;;;1.27;;
52962;SDS011;38827;53.024;6.596;2023-04-03T08:58:06;3.58;;;1.15;;
52962;SDS011;38827;53.024;6.596;2023-04-03T09:00:58;3.47;;;1.63;;
52962;SDS011;38827;53.024;6.596;2023-04-03T09:03:32;3.72;;;1.20;;
52962;SDS011;38827;53.024;6.596;2023-04-03T09:06:13;2.80;;;1.15;;
52962;SDS011;38827;53.024;6.596;2023-04-03T09:17:13;2.23;;;1.17;;
52962;SDS011;38827;53.024;6.596;2023-04-03T09:20:01;3.05;;;0.80;;
52962;SDS011;38827;53.024;6.596;2023-04-03T09:22:49;4.30;;;1.08;;
52962;SDS011;38827;53.024;6.596;2023-04-03T09:25:27;2.35;;;1.08;;
52962;SDS011;38827;53.024;6.596;2023-04-03T09:27:59;2.25;;;1.00;;
52962;SDS011;38827;53.024;6.596;2023-04-03T09:30:26;2.67;;;0.95;;
52962;SDS011;38827;53.024;6.596;2023-04-03T09:32:54;3.03;;;0.98;;
52962;SDS011;38827;53.024;6.596;2023-04-03T09:35:26;3.13;;;1.00;;
52962;SDS011;38827;53.024;6.596;2023-04-03T09:37:53;1.50;;;0.80;;
52962;SDS011;38827;53.024;6.596;2023-04-03T09:42:50;3.07;;;0.90;;
52962;SDS011;38827;53.024;6.596;2023-04-03T09:45:33;2.13;;;1.00;;
52962;SDS011;38827;53.024;6.596;2023-04-03T09:50:38;2.75;;;0.93;;
52962;SDS011;38827;53.024;6.596;2023-04-03T09:53:35;1.73;;;0.80;;
52962;SDS011;38827;53.024;6.596;2023-04-03T09:56:18;1.48;;;0.70;;
52962;SDS011;38827;53.024;6.596;2023-04-03T09:58:50;1.80;;;0.70;;
52962;SDS011;38827;53.024;6.596;2023-04-03T10:04:03;2.58;;;0.90;;
52962;SDS011;38827;53.024;6.596;2023-04-03T10:06:29;2.30;;;1.10;;
52962;SDS011;38827;53.024;6.596;2023-04-03T10:09:15;1.10;;;0.60;;
52962;SDS011;38827;53.024;6.596;2023-04-03T10:14:30;1.75;;;0.70;;
52962;SDS011;38827;53.024;6.596;2023-04-03T10:19:59;1.58;;;0.65;;
52962;SDS011;38827;53.024;6.596;2023-04-03T10:22:48;1.33;;;0.63;;
52962;SDS011;38827;53.024;6.596;2023-04-03T10:25:41;1.97;;;0.50;;
52962;SDS011;38827;53.024;6.596;2023-04-03T10:33:50;1.67;;;0.73;;
52962;SDS011;38827;53.024;6.596;2023-04-03T10:39:22;1.58;;;0.65;;
52962;SDS011;38827;53.024;6.596;2023-04-03T10:47:10;1.05;;;0.50;;
52962;SDS011;38827;53.024;6.596;2023-04-03T10:55:01;2.20;;;0.77;;
52962;SDS011;38827;53.024;6.596;2023-04-03T10:58:03;1.33;;;0.77;;
52962;SDS011;38827;53.024;6.596;2023-04-03T11:00:33;2.20;;;1.00;;
52962;SDS011;38827;53.024;6.596;2023-04-03T11:03:12;2.13;;;0.85;;
52962;SDS011;38827;53.024;6.596;2023-04-03T11:05:52;1.27;;;0.68;;
52962;SDS011;38827;53.024;6.596;2023-04-03T11:08:25;1.95;;;1.00;;
52962;SDS011;38827;53.024;6.596;2023-04-03T11:11:29;1.67;;;0.88;;
52962;SDS011;38827;53.024;6.596;2023-04-03T11:13:55;3.20;;;1.00;;
52962;SDS011;38827;53.024;6.596;2023-04-03T11:16:28;1.88;;;0.80;;
52962;SDS011;38827;53.024;6.596;2023-04-03T11:19:02;2.42;;;0.80;;
52962;SDS011;38827;53.024;6.596;2023-04-03T11:21:41;1.73;;;0.77;;
52962;SDS011;38827;53.024;6.596;2023-04-03T11:24:15;1.40;;;0.63;;
52962;SDS011;38827;53.024;6.596;2023-04-03T11:26:47;3.63;;;1.10;;
52962;SDS011;38827;53.024;6.596;2023-04-03T11:29:18;2.45;;;0.90;;
52962;SDS011;38827;53.024;6.596;2023-04-03T11:34:33;2.30;;;0.80;;
52962;SDS011;38827;53.024;6.596;2023-04-03T11:37:02;1.55;;;0.68;;
52962;SDS011;38827;53.024;6.596;2023-04-03T11:39:35;2.45;;;0.80;;
52962;SDS011;38827;53.024;6.596;2023-04-03T11:45:15;1.45;;;0.70;;
52962;SDS011;38827;53.024;6.596;2023-04-03T11:47:49;2.20;;;0.90;;
52962;SDS011;38827;53.024;6.596;2023-04-03T11:53:00;2.22;;;0.93;;
52962;SDS011;38827;53.024;6.596;2023-04-03T12:13:36;2.08;;;0.90;;
52962;SDS011;38827;53.024;6.596;2023-04-03T12:16:05;1.90;;;1.02;;
52962;SDS011;38827;53.024;6.596;2023-04-03T12:18:42;1.50;;;1.00;;
52962;SDS011;38827;53.024;6.596;2023-04-03T12:21:16;1.92;;;0.82;;
52962;SDS011;38827;53.024;6.596;2023-04-03T12:29:21;2.10;;;0.80;;
52962;SDS011;38827;53.024;6.596;2023-04-03T12:32:04;3.15;;;1.08;;
52962;SDS011;38827;53.024;6.596;2023-04-03T12:42:58;2.25;;;1.00;;
52962;SDS011;38827;53.024;6.596;2023-04-03T12:45:43;2.15;;;1.02;;
52962;SDS011;38827;53.024;6.596;2023-04-03T12:48:30;2.60;;;1.00;;
52962;SDS011;38827;53.024;6.596;2023-04-03T12:50:58;2.20;;;0.82;;
52962;SDS011;38827;53.024;6.596;2023-04-03T12:53:26;2.40;;;1.02;;
52962;SDS011;38827;53.024;6.596;2023-04-03T12:56:18;3.00;;;1.00;;
52962;SDS011;38827;53.024;6.596;2023-04-03T12:59:16;2.90;;;1.10;;
52962;SDS011;38827;53.024;6.596;2023-04-03T13:01:56;2.72;;;1.10;;
52962;SDS011;38827;53.024;6.596;2023-04-03T13:04:30;2.40;;;1.00;;
52962;SDS011;38827;53.024;6.596;2023-04-03T13:06:56;2.35;;;1.00;;
52962;SDS011;38827;53.024;6.596;2023-04-03T13:09:27;2.35;;;1.10;;
52962;SDS011;38827;53.024;6.596;2023-04-03T13:12:01;2.20;;;1.10;;
52962;SDS011;38827;53.024;6.596;2023-04-03T13:14:38;2.10;;;0.90;;
52962;SDS011;38827;53.024;6.596;2023-04-03T13:17:06;2.10;;;1.00;;
52962;SDS011;38827;53.024;6.596;2023-04-03T13:19:38;3.22;;;0.98;;
52962;SDS011;38827;53.024;6.596;2023-04-03T13:22:06;1.23;;;0.90;;
52962;SDS011;38827;53.024;6.596;2023-04-03T13:24:42;2.72;;;1.05;;
52962;SDS011;38827;53.024;6.596;2023-04-03T13:27:10;1.75;;;1.20;;
52962;SDS011;38827;53.024;6.596;2023-04-03T13:29:37;2.72;;;1.30;;
52962;SDS011;38827;53.024;6.596;2023-04-03T13:32:04;2.42;;;1.23;;
52962;SDS011;38827;53.024;6.596;2023-04-03T13:34:41;1.88;;;0.95;;
52962;SDS011;38827;53.024;6.596;2023-04-03T13:37:28;1.90;;;0.90;;
52962;SDS011;38827;53.024;6.596;2023-04-03T13:42:34;2.83;;;1.10;;
52962;SDS011;38827;53.024;6.596;2023-04-03T13:45:21;2.47;;;1.15;;
52962;SDS011;38827;53.024;6.596;2023-04-03T13:47:51;1.92;;;0.82;;
52962;SDS011;38827;53.024;6.596;2023-04-03T13:50:26;1.88;;;0.95;;
52962;SDS011;38827;53.024;6.596;2023-04-03T13:53:27;3.10;;;0.98;;
52962;SDS011;38827;53.024;6.596;2023-04-03T13:55:54;2.38;;;1.05;;
52962;SDS011;38827;53.024;6.596;2023-04-03T13:58:24;1.70;;;0.90;;
52962;SDS011;38827;53.024;6.596;2023-04-03T14:03:28;3.38;;;1.20;;
52962;SDS011;38827;53.024;6.596;2023-04-03T14:06:06;1.80;;;1.02;;
52962;SDS011;38827;53.024;6.596;2023-04-03T14:08:35;2.53;;;0.95;;
52962;SDS011;38827;53.024;6.596;2023-04-03T14:11:01;2.75;;;1.23;;
52962;SDS011;38827;53.024;6.596;2023-04-03T14:13:29;1.95;;;0.90;;
52962;SDS011;38827;53.024;6.596;2023-04-03T14:16:01;1.85;;;0.88;;
52962;SDS011;38827;53.024;6.596;2023-04-03T14:18:27;2.58;;;1.05;;
52962;SDS011;38827;53.024;6.596;2023-04-03T14:20:53;1.97;;;0.73;;
52962;SDS011;38827;53.024;6.596;2023-04-03T14:23:19;1.80;;;0.77;;
52962;SDS011;38827;53.024;6.596;2023-04-03T14:25:45;3.28;;;0.80;;
52962;SDS011;38827;53.024;6.596;2023-04-03T14:28:28;1.13;;;0.77;;
52962;SDS011;38827;53.024;6.596;2023-04-03T14:30:56;2.03;;;0.98;;
52962;SDS011;38827;53.024;6.596;2023-04-03T14:33:22;1.87;;;0.80;;
52962;SDS011;38827;53.024;6.596;2023-04-03T14:35:49;2.85;;;0.70;;
52962;SDS011;38827;53.024;6.596;2023-04-03T14:40:47;4.20;;;1.20;;
52962;SDS011;38827;53.024;6.596;2023-04-03T14:43:18;2.25;;;0.80;;
52962;SDS011;38827;53.024;6.596;2023-04-03T14:45:48;3.13;;;0.90;;
52962;SDS011;38827;53.024;6.596;2023-04-03T14:48:26;2.85;;;0.88;;
52962;SDS011;38827;53.024;6.596;2023-04-03T14:50:53;1.70;;;0.90;;
52962;SDS011;38827;53.024;6.596;2023-04-03T14:53:19;1.97;;;1.00;;
52962;SDS011;38827;53.024;6.596;2023-04-03T14:55:49;2.22;;;0.70;;
52962;SDS011;38827;53.024;6.596;2023-04-03T14:58:17;1.17;;;0.80;;
52962;SDS011;38827;53.024;6.596;2023-04-03T15:00:44;2.33;;;0.90;;
52962;SDS011;38827;53.024;6.596;2023-04-03T15:03:17;2.42;;;1.10;;
52962;SDS011;38827;53.024;6.596;2023-04-03T15:05:45;2.25;;;0.75;;
52962;SDS011;38827;53.024;6.596;2023-04-03T15:10:43;3.22;;;0.80;;
52962;SDS011;38827;53.024;6.596;2023-04-03T15:13:10;2.40;;;0.90;;
52962;SDS011;38827;53.024;6.596;2023-04-03T15:15:37;1.10;;;0.70;;
52962;SDS011;38827;53.024;6.596;2023-04-03T15:18:09;1.50;;;0.80;;
52962;SDS011;38827;53.024;6.596;2023-04-03T15:20:42;3.88;;;0.80;;
52962;SDS011;38827;53.024;6.596;2023-04-03T15:23:08;1.13;;;0.80;;
52962;SDS011;38827;53.024;6.596;2023-04-03T15:25:36;1.30;;;0.80;;
52962;SDS011;38827;53.024;6.596;2023-04-03T15:28:02;1.70;;;0.70;;
52962;SDS011;38827;53.024;6.596;2023-04-03T15:30:27;1.40;;;0.77;;
52962;SDS011;38827;53.024;6.596;2023-04-03T15:32:53;1.77;;;0.80;;
52962;SDS011;38827;53.024;6.596;2023-04-03T15:35:19;2.70;;;0.70;;
52962;SDS011;38827;53.024;6.596;2023-04-03T15:37:44;2.00;;;0.90;;
52962;SDS011;38827;53.024;6.596;2023-04-03T15:40:10;3.23;;;0.90;;
52962;SDS011;38827;53.024;6.596;2023-04-03T15:42:36;3.67;;;1.50;;
52962;SDS011;38827;53.024;6.596;2023-04-03T15:45:02;3.07;;;1.30;;
52962;SDS011;38827;53.024;6.596;2023-04-03T15:47:28;1.88;;;0.90;;
52962;SDS011;38827;53.024;6.596;2023-04-03T15:49:54;2.00;;;1.13;;
52962;SDS011;38827;53.024;6.596;2023-04-03T15:52:20;1.50;;;0.73;;
52962;SDS011;38827;53.024;6.596;2023-04-03T15:54:46;2.28;;;1.02;;
52962;SDS011;38827;53.024;6.596;2023-04-03T15:57:12;2.78;;;1.00;;
52962;SDS011;38827;53.024;6.596;2023-04-03T15:59:37;2.50;;;1.10;;
52962;SDS011;38827;53.024;6.596;2023-04-03T16:02:03;1.70;;;1.00;;
52962;SDS011;38827;53.024;6.596;2023-04-03T16:04:32;1.80;;;0.98;;
52962;SDS011;38827;53.024;6.596;2023-04-03T16:07:01;4.15;;;1.20;;
52962;SDS011;38827;53.024;6.596;2023-04-03T16:09:27;2.72;;;1.17;;
52962;SDS011;38827;53.024;6.596;2023-04-03T16:11:53;2.75;;;1.20;;
52962;SDS011;38827;53.024;6.596;2023-04-03T16:14:19;2.20;;;1.10;;
52962;SDS011;38827;53.024;6.596;2023-04-03T16:16:45;2.92;;;1.10;;
52962;SDS011;38827;53.024;6.596;2023-04-03T16:19:11;3.05;;;1.33;;
52962;SDS011;38827;53.024;6.596;2023-04-03T16:21:37;1.50;;;1.00;;
52962;SDS011;38827;53.024;6.596;2023-04-03T16:24:06;1.75;;;0.93;;
52962;SDS011;38827;53.024;6.596;2023-04-03T16:26:34;2.55;;;1.20;;
52962;SDS011;38827;53.024;6.596;2023-04-03T16:28:59;1.73;;;0.90;;
52962;SDS011;38827;53.024;6.596;2023-04-03T16:31:25;1.55;;;0.80;;
52962;SDS011;38827;53.024;6.596;2023-04-03T16:33:52;1.17;;;0.70;;
52962;SDS011;38827;53.024;6.596;2023-04-03T16:36:17;1.50;;;0.80;;
52962;SDS011;38827;53.024;6.596;2023-04-03T16:38:43;3.03;;;1.00;;
52962;SDS011;38827;53.024;6.596;2023-04-03T16:41:09;1.88;;;0.90;;
52962;SDS011;38827;53.024;6.596;2023-04-03T16:43:35;2.83;;;1.00;;
52962;SDS011;38827;53.024;6.596;2023-04-03T16:46:01;2.38;;;1.35;;
52962;SDS011;38827;53.024;6.596;2023-04-03T16:48:28;1.63;;;0.82;;
52962;SDS011;38827;53.024;6.596;2023-04-03T16:50:57;2.55;;;0.82;;
52962;SDS011;38827;53.024;6.596;2023-04-03T16:53:23;3.53;;;1.10;;
52962;SDS011;38827;53.024;6.596;2023-04-03T16:55:50;1.80;;;0.75;;
52962;SDS011;38827;53.024;6.596;2023-04-03T16:58:16;1.75;;;0.98;;
52962;SDS011;38827;53.024;6.596;2023-04-03T17:00:42;3.28;;;1.10;;
52962;SDS011;38827;53.024;6.596;2023-04-03T17:03:08;2.15;;;1.00;;
52962;SDS011;38827;53.024;6.596;2023-04-03T17:05:34;2.15;;;1.15;;
52962;SDS011;38827;53.024;6.596;2023-04-03T17:08:00;1.83;;;0.90;;
52962;SDS011;38827;53.024;6.596;2023-04-03T17:10:29;2.55;;;1.00;;